Time;durP1;ratioP1;P1;durP2;ratioP2;P2;SDS_P1;SDS_P2;PMS_P1;PMS_P2;Temp;Humidity;BMP_temperature;BMP_pressure;BME280_temperature;BME280_humidity;BME280_pressure;Samples;Min_cycle;Max_cycle;Signal;HPM_P1;HPM_P2
2023/09/06 00:00:42;;;;;;;5.47;3.22;;;;;;;21.09;58.54;100317.78;4895717;28;20130;-86
2023/09/06 00:03:10;;;;;;;3.45;2.58;;;;;;;21.05;58.49;100325.44;4915297;28;20051;-86
2023/09/06 00:05:41;;;;;;;4.15;2.90;;;;;;;21.05;58.78;100313.81;4910647;28;20486;-87
2023/09/06 00:08:09;;;;;;;5.88;3.42;;;;;;;21.04;58.39;100312.97;4896986;28;20086;-86
2023/09/06 00:10:40;;;;;;;8.30;3.25;;;;;;;21.00;58.44;100320.63;4944650;28;20047;-86
2023/09/06 00:13:08;;;;;;;4.22;2.75;;;;;;;20.99;58.22;100315.41;4924453;28;20055;-87
2023/09/06 00:15:35;;;;;;;3.80;3.20;;;;;;;20.94;58.37;100320.53;4911082;28;20052;-87
2023/09/06 00:18:06;;;;;;;5.03;3.33;;;;;;;20.92;58.02;100317.22;4927418;28;20047;-87
2023/09/06 00:20:35;;;;;;;4.40;3.35;;;;;;;20.91;58.47;100319.06;4911951;29;20472;-87
2023/09/06 00:23:09;;;;;;;5.30;3.13;;;;;;;20.76;58.66;100318.25;4897159;29;20075;-87
2023/09/06 00:25:36;;;;;;;3.35;2.90;;;;;;;20.84;58.54;100322.72;4943322;28;20523;-87
2023/09/06 00:28:04;;;;;;;5.95;3.05;;;;;;;20.82;58.61;100320.22;4917500;28;20079;-87
2023/09/06 00:30:31;;;;;;;3.83;3.00;;;;;;;20.82;58.71;100320.22;4895144;28;20047;-87
2023/09/06 00:33:05;;;;;;;4.35;3.13;;;;;;;20.79;58.75;100331.41;4908830;28;20106;-87
2023/09/06 00:35:33;;;;;;;3.90;3.28;;;;;;;20.76;58.39;100319.13;4939040;28;20119;-87
2023/09/06 00:38:05;;;;;;;3.38;2.97;;;;;;;20.74;58.74;100317.63;4937352;28;20051;-87
2023/09/06 00:40:40;;;;;;;4.20;3.03;;;;;;;20.67;58.91;100319.41;4925171;29;20480;-87
2023/09/06 00:43:07;;;;;;;5.60;2.88;;;;;;;20.68;58.70;100311.13;4912022;28;20051;-87
2023/09/06 00:45:41;;;;;;;3.95;3.15;;;;;;;20.65;59.15;100316.06;4927274;29;20043;-87
2023/09/06 00:48:09;;;;;;;4.93;3.15;;;;;;;20.69;58.78;100314.69;4952449;28;20047;-87
2023/09/06 00:50:37;;;;;;;3.58;3.28;;;;;;;20.69;59.05;100312.81;4911664;28;20129;-88
2023/09/06 00:53:07;;;;;;;5.00;2.88;;;;;;;20.67;58.79;100314.03;4945541;28;20110;-87
2023/09/06 00:55:37;;;;;;;6.65;2.80;;;;;;;20.70;58.47;100309.06;4922680;28;20523;-86
2023/09/06 00:58:05;;;;;;;6.45;4.03;;;;;;;20.68;57.73;100315.69;4927259;28;20043;-87
2023/09/06 01:00:33;;;;;;;5.07;3.20;;;;;;;20.69;57.96;100320.06;4913288;28;20423;-87
2023/09/06 01:03:00;;;;;;;4.40;3.35;;;;;;;20.67;57.94;100309.47;4921943;28;20046;-88
2023/09/06 01:05:31;;;;;;;4.13;2.95;;;;;;;20.65;58.18;100313.38;4906208;28;20048;-87
2023/09/06 01:08:03;;;;;;;5.45;3.17;;;;;;;20.63;58.28;100304.63;4930302;28;20600;-87
2023/09/06 01:10:34;;;;;;;3.95;3.53;;;;;;;20.53;58.42;100313.84;4912302;28;20055;-88
2023/09/06 01:13:02;;;;;;;4.40;2.80;;;;;;;20.55;58.58;100313.66;4931913;28;20048;-87
2023/09/06 01:15:29;;;;;;;5.20;3.17;;;;;;;20.55;58.77;100313.66;4892245;28;20043;-86
2023/09/06 01:17:59;;;;;;;6.57;3.17;;;;;;;20.52;58.60;100316.72;4915315;28;20526;-87
2023/09/06 01:20:42;;;;;;;5.60;3.10;;;;;;;20.43;58.92;100321.41;4940945;28;20047;-87
2023/09/06 01:23:27;;;;;;;4.55;3.08;;;;;;;20.32;58.69;100320.00;4917901;28;20111;-88
2023/09/06 01:25:54;;;;;;;5.00;3.40;;;;;;;20.42;58.86;100319.69;4950221;28;20837;-88
2023/09/06 01:28:27;;;;;;;8.18;3.67;;;;;;;20.39;58.76;100325.47;4904787;28;20483;-86
2023/09/06 01:30:55;;;;;;;4.25;3.00;;;;;;;20.36;58.98;100323.16;4925489;28;20555;-88
2023/09/06 01:33:22;;;;;;;5.35;3.08;;;;;;;20.36;59.19;100315.91;4928480;28;20039;-86
2023/09/06 01:35:50;;;;;;;7.57;3.05;;;;;;;20.33;59.23;100315.44;4895521;28;20058;-87
2023/09/06 01:38:17;;;;;;;5.45;2.80;;;;;;;20.34;59.04;100317.94;4926419;29;20078;-87
2023/09/06 01:40:44;;;;;;;4.47;3.13;;;;;;;20.31;59.07;100314.81;4936920;28;20065;-87
2023/09/06 01:43:11;;;;;;;5.13;3.13;;;;;;;20.28;59.36;100312.47;4913686;28;20047;-86
2023/09/06 01:45:45;;;;;;;5.35;3.60;;;;;;;20.25;59.50;100315.53;4901856;28;20404;-87
2023/09/06 01:48:12;;;;;;;5.03;3.17;;;;;;;20.24;59.52;100316.56;4905338;28;20523;-86
2023/09/06 01:50:41;;;;;;;4.05;3.00;;;;;;;20.22;59.23;100311.34;4924219;28;20047;-87
2023/09/06 01:53:08;;;;;;;6.32;3.55;;;;;;;20.15;59.44;100310.44;4912560;28;20043;-86
2023/09/06 01:55:35;;;;;;;7.10;3.42;;;;;;;20.17;59.56;100305.69;4913356;28;20058;-87
2023/09/06 01:58:03;;;;;;;4.78;3.05;;;;;;;20.13;59.56;100299.00;4952626;28;20440;-86
2023/09/06 02:00:31;;;;;;;6.13;3.35;;;;;;;20.12;59.37;100300.00;4903998;28;20055;-87
2023/09/06 02:03:00;;;;;;;5.03;2.80;;;;;;;20.11;59.61;100298.34;4942122;28;20079;-87
2023/09/06 02:05:30;;;;;;;5.63;2.90;;;;;;;20.09;59.78;100297.69;4908943;28;20055;-87
2023/09/06 02:07:57;;;;;;;5.32;3.15;;;;;;;20.10;59.95;100296.69;4937739;28;21334;-87
2023/09/06 02:10:24;;;;;;;5.38;3.70;;;;;;;20.08;59.76;100296.88;4942416;28;20047;-88
2023/09/06 02:12:51;;;;;;;5.18;3.30;;;;;;;20.05;59.98;100297.25;4939485;28;20134;-87
2023/09/06 02:15:18;;;;;;;5.13;3.30;;;;;;;20.06;59.88;100285.41;4893965;28;20060;-87
2023/09/06 02:17:44;;;;;;;5.13;3.40;;;;;;;19.99;60.19;100287.19;4928646;28;20496;-87
2023/09/06 02:20:24;;;;;;;3.75;3.28;;;;;;;19.99;60.02;100302.53;4940583;28;20039;-87
2023/09/06 02:22:52;;;;;;;9.20;3.17;;;;;;;20.00;60.35;100282.63;4922250;28;20043;-86
2023/09/06 02:25:22;;;;;;;5.68;3.30;;;;;;;19.95;60.45;100294.81;4940345;28;20518;-86
2023/09/06 02:27:49;;;;;;;6.15;3.65;;;;;;;19.97;60.53;100291.09;4904005;28;20515;-87
2023/09/06 02:30:19;;;;;;;4.57;3.15;;;;;;;19.93;60.33;100285.25;4921281;28;20135;-87
2023/09/06 02:32:47;;;;;;;5.15;3.45;;;;;;;19.93;60.38;100287.94;4919568;28;20047;-87
2023/09/06 02:35:15;;;;;;;5.35;3.28;;;;;;;19.93;60.53;100293.34;4923176;28;20452;-86
2023/09/06 02:37:42;;;;;;;6.45;3.55;;;;;;;19.90;60.38;100288.31;4935540;28;20119;-86
2023/09/06 02:40:12;;;;;;;4.40;3.13;;;;;;;19.85;60.73;100291.56;4910876;28;20741;-86
2023/09/06 02:42:41;;;;;;;5.03;3.35;;;;;;;19.84;60.85;100289.03;4929894;28;20051;-86
2023/09/06 02:45:09;;;;;;;4.57;3.60;;;;;;;19.81;60.88;100290.25;4909354;28;20048;-86
2023/09/06 02:47:47;;;;;;;3.70;3.17;;;;;;;19.72;60.87;100278.72;4909254;28;20051;-87
2023/09/06 02:50:23;;;;;;;4.78;3.67;;;;;;;19.78;60.80;100289.78;4926496;28;20061;-87
2023/09/06 02:52:53;;;;;;;4.78;3.10;;;;;;;19.75;60.90;100285.59;4939999;28;21199;-87
2023/09/06 02:55:21;;;;;;;4.70;3.38;;;;;;;19.72;60.77;100285.97;4902990;28;20106;-86
2023/09/06 02:57:49;;;;;;;4.55;3.42;;;;;;;19.68;61.03;100293.56;4927253;28;20051;-86
2023/09/06 03:00:25;;;;;;;4.75;3.28;;;;;;;19.71;60.63;100295.91;4948070;28;20130;-86
2023/09/06 03:03:05;;;;;;;4.35;3.47;;;;;;;19.65;60.80;100296.63;4893605;28;20048;-87
2023/09/06 03:05:43;;;;;;;4.65;3.30;;;;;;;19.58;60.71;100301.06;4910769;28;20047;-86
2023/09/06 03:08:14;;;;;;;5.07;3.38;;;;;;;19.58;60.68;100294.84;4920089;29;20049;-86
2023/09/06 03:10:44;;;;;;;4.72;3.42;;;;;;;19.59;60.56;100305.44;4911935;28;20039;-87
2023/09/06 03:13:15;;;;;;;5.13;3.40;;;;;;;19.57;60.79;100301.25;4952499;28;20036;-86
2023/09/06 03:15:43;;;;;;;4.03;3.47;;;;;;;19.55;60.72;100303.28;4922048;28;20099;-86
2023/09/06 03:18:11;;;;;;;7.03;3.03;;;;;;;19.53;61.00;100311.53;4907436;28;20503;-86
2023/09/06 03:20:45;;;;;;;3.72;3.13;;;;;;;19.54;60.74;100318.63;4935833;28;20044;-86
2023/09/06 03:23:21;;;;;;;4.70;3.42;;;;;;;19.48;61.13;100313.94;4891955;28;20056;-86
2023/09/06 03:25:54;;;;;;;6.15;3.05;;;;;;;19.52;60.93;100310.72;4908674;28;20062;-85
2023/09/06 03:28:25;;;;;;;4.23;3.43;;;;;;;19.47;60.99;100312.28;4924183;28;20043;-87
2023/09/06 03:30:53;;;;;;;4.93;3.67;;;;;;;19.45;60.95;100314.31;4922249;28;20048;-86
2023/09/06 03:33:20;;;;;;;5.18;3.40;;;;;;;19.43;60.74;100310.97;4891227;29;20051;-86
2023/09/06 03:35:48;;;;;;;4.38;3.67;;;;;;;19.38;60.92;100311.50;4929391;28;20122;-85
2023/09/06 03:38:17;;;;;;;4.63;3.22;;;;;;;19.35;61.02;100311.03;4937152;28;20115;-86
2023/09/06 03:40:44;;;;;;;4.03;3.50;;;;;;;19.29;61.13;100313.44;4908135;28;20054;-86
2023/09/06 03:43:19;;;;;;;6.10;3.70;;;;;;;19.29;61.09;100318.00;4948014;28;20535;-86
2023/09/06 03:45:51;;;;;;;4.82;3.40;;;;;;;19.24;61.39;100310.44;4920927;28;20107;-86
2023/09/06 03:48:20;;;;;;;3.80;3.40;;;;;;;19.20;61.29;100309.13;4953542;28;20053;-86
2023/09/06 03:50:51;;;;;;;6.20;3.47;;;;;;;19.12;61.39;100308.34;4936144;28;20420;-84
2023/09/06 03:53:19;;;;;;;8.10;3.78;;;;;;;19.13;61.47;100308.16;4909950;28;20142;-85
2023/09/06 03:55:47;;;;;;;5.65;3.38;;;;;;;19.10;61.07;100308.53;4940097;28;20055;-87
2023/09/06 03:58:14;;;;;;;6.10;3.40;;;;;;;19.09;61.53;100312.25;4909190;28;20053;-86
2023/09/06 04:00:43;;;;;;;4.53;3.50;;;;;;;19.09;61.34;100313.06;4923828;28;20111;-87
2023/09/06 04:03:20;;;;;;;4.40;2.78;;;;;;;19.08;61.24;100310.56;4937197;28;20052;-87
2023/09/06 04:05:48;;;;;;;5.00;3.50;;;;;;;19.09;61.33;100309.56;4938640;28;20626;-87
2023/09/06 04:08:17;;;;;;;4.53;3.42;;;;;;;19.10;61.74;100308.53;4923625;28;20051;-86
2023/09/06 04:10:49;;;;;;;5.20;3.30;;;;;;;19.10;61.90;100308.53;4935664;28;20411;-88
2023/09/06 04:13:17;;;;;;;3.92;2.83;;;;;;;19.09;62.00;100317.63;4908042;28;20119;-89
2023/09/06 04:15:44;;;;;;;5.80;3.35;;;;;;;19.06;61.95;100318.81;4918470;28;20508;-89
2023/09/06 04:18:12;;;;;;;5.05;3.50;;;;;;;19.05;61.57;100313.59;4936149;28;20054;-89
2023/09/06 04:20:46;;;;;;;3.70;3.08;;;;;;;19.03;61.77;100307.56;4912991;28;20130;-89
2023/09/06 04:23:16;;;;;;;5.78;3.53;;;;;;;19.04;61.91;100317.34;4910397;29;20052;-89
2023/09/06 04:25:49;;;;;;;8.77;3.97;;;;;;;19.00;61.99;100314.13;4934141;28;20051;-89
2023/09/06 04:28:20;;;;;;;6.93;3.60;;;;;;;18.97;61.95;100313.69;4937672;28;20051;-90
2023/09/06 04:30:49;;;;;;;6.68;3.85;;;;;;;19.01;62.04;100321.22;4896130;28;20044;-89
2023/09/06 04:33:20;;;;;;;5.35;3.55;;;;;;;18.98;61.88;100313.50;4891745;28;20056;-90
2023/09/06 04:36:13;;;;;;;4.57;3.55;;;;;;;18.97;62.27;100322.56;4929268;28;20536;-90
2023/09/06 04:38:40;;;;;;;5.25;3.50;;;;;;;18.99;62.44;100317.88;4918348;28;20055;-90
2023/09/06 04:41:10;;;;;;;6.85;3.53;;;;;;;18.94;62.79;100316.72;4928145;28;20406;-90
2023/09/06 04:43:43;;;;;;;4.35;3.42;;;;;;;18.95;62.86;100324.59;4933402;28;20652;-90
2023/09/06 04:46:09;;;;;;;8.45;3.78;;;;;;;18.91;62.66;100325.16;4905701;28;20047;-90
2023/09/06 04:48:43;;;;;;;4.88;4.22;;;;;;;18.90;62.71;100331.53;4896187;28;20070;-89
2023/09/06 04:51:09;;;;;;;5.32;3.83;;;;;;;18.86;62.79;100323.00;4936772;28;20065;-90
2023/09/06 04:53:38;;;;;;;6.20;3.80;;;;;;;18.89;62.63;100332.56;4922106;29;20518;-89
2023/09/06 04:56:07;;;;;;;6.05;4.28;;;;;;;18.85;62.85;100332.94;4939884;28;20071;-91
2023/09/06 04:58:39;;;;;;;6.22;3.67;;;;;;;18.82;62.90;100327.88;4940514;28;20043;-90
2023/09/06 05:01:06;;;;;;;6.65;4.07;;;;;;;18.84;62.88;100325.03;4935959;28;20039;-90
2023/09/06 05:03:35;;;;;;;4.07;3.70;;;;;;;18.83;63.07;100326.88;4895456;28;20043;-89
2023/09/06 05:06:03;;;;;;;5.35;3.70;;;;;;;18.82;63.41;100327.06;4915766;28;20047;-89
2023/09/06 05:08:30;;;;;;;7.32;4.22;;;;;;;18.81;63.33;100328.06;4922581;28;20062;-89
2023/09/06 05:10:59;;;;;;;6.50;4.70;;;;;;;18.81;63.21;100336.97;4935254;28;20051;-90
2023/09/06 05:13:26;;;;;;;4.85;4.25;;;;;;;18.80;63.21;100337.16;4923229;29;20051;-89
2023/09/06 05:16:01;;;;;;;6.70;4.53;;;;;;;18.76;63.41;100335.84;4905917;28;20808;-90
2023/09/06 05:18:29;;;;;;;4.65;3.85;;;;;;;18.75;63.41;100334.13;4921152;28;20052;-90
2023/09/06 05:20:59;;;;;;;5.53;4.00;;;;;;;18.78;63.05;100341.88;4907937;28;20063;-91
2023/09/06 05:23:28;;;;;;;5.55;4.63;;;;;;;18.77;63.30;100346.41;4930205;28;20047;-90
2023/09/06 05:25:56;;;;;;;7.18;4.05;;;;;;;18.78;63.32;100341.88;4921104;28;20071;-90
2023/09/06 05:28:28;;;;;;;7.45;4.00;;;;;;;18.77;63.31;100340.19;4913777;28;20122;-90
2023/09/06 05:31:01;;;;;;;8.35;4.82;;;;;;;18.82;63.01;100345.88;4935681;28;20154;-90
2023/09/06 05:33:30;;;;;;;5.78;4.00;;;;;;;18.81;63.24;100339.66;4925389;28;20669;-90
2023/09/06 05:35:58;;;;;;;6.22;4.28;;;;;;;18.84;63.04;100354.63;4894056;28;20118;-89
2023/09/06 05:38:25;;;;;;;5.78;4.10;;;;;;;18.81;63.21;100344.22;4906998;28;20052;-83
2023/09/06 05:40:53;;;;;;;5.65;4.65;;;;;;;18.82;63.52;100351.25;4923072;28;20043;-90
2023/09/06 05:43:27;;;;;;;6.95;4.20;;;;;;;18.85;63.74;100356.28;4896906;28;20061;-89
2023/09/06 05:45:54;;;;;;;10.40;4.80;;;;;;;18.86;64.03;100352.59;4913605;28;20062;-90
2023/09/06 05:48:21;;;;;;;6.72;4.97;;;;;;;18.87;63.70;100351.56;4922846;28;20479;-89
2023/09/06 05:50:50;;;;;;;7.10;4.55;;;;;;;18.90;63.49;100347.69;4906842;28;20079;-90
2023/09/06 05:53:17;;;;;;;5.65;4.70;;;;;;;18.92;63.82;100356.44;4936887;28;20052;-89
2023/09/06 05:55:44;;;;;;;6.53;4.22;;;;;;;18.90;63.44;100351.22;4903949;28;20144;-89
2023/09/06 05:58:12;;;;;;;9.45;4.65;;;;;;;18.91;63.32;100349.38;4921897;28;20519;-89
2023/09/06 06:00:40;;;;;;;9.63;4.38;;;;;;;18.91;63.61;100354.75;4911548;29;20776;-86
2023/09/06 06:03:09;;;;;;;5.88;4.15;;;;;;;18.93;63.40;100360.78;4925331;28;20522;-90
2023/09/06 06:05:37;;;;;;;5.35;4.00;;;;;;;18.96;63.69;100357.75;4905013;29;20066;-91
2023/09/06 06:08:05;;;;;;;8.25;5.00;;;;;;;18.95;64.02;100356.06;4923589;28;20051;-90
2023/09/06 06:10:34;;;;;;;5.90;4.28;;;;;;;18.94;64.30;100357.09;4914154;29;20551;-88
2023/09/06 06:13:03;;;;;;;7.60;4.50;;;;;;;19.01;64.27;100358.06;4946729;28;20145;-89
2023/09/06 06:15:31;;;;;;;8.73;5.45;;;;;;;19.01;64.20;100352.69;4934070;28;20557;-89
2023/09/06 06:17:57;;;;;;;6.30;4.93;;;;;;;19.09;63.47;100356.16;4919020;28;20059;-89
2023/09/06 06:20:24;;;;;;;6.38;4.30;;;;;;;19.13;63.00;100353.94;4937467;28;20054;-90
2023/09/06 06:23:09;;;;;;;6.13;4.85;;;;;;;19.22;63.88;100352.84;4910587;28;20114;-89
2023/09/06 06:25:36;;;;;;;6.47;4.80;;;;;;;19.19;63.07;100350.53;4901300;28;20130;-89
2023/09/06 06:28:03;;;;;;;7.20;4.70;;;;;;;19.26;63.43;100356.88;4902001;28;20201;-90
2023/09/06 06:30:30;;;;;;;5.97;4.45;;;;;;;19.26;62.86;100353.34;4932904;28;20470;-89
2023/09/06 06:33:00;;;;;;;7.53;5.00;;;;;;;19.31;63.37;100348.28;4934403;28;20060;-90
2023/09/06 06:35:27;;;;;;;6.03;4.63;;;;;;;19.27;62.64;100353.16;4938457;28;20044;-89
2023/09/06 06:37:55;;;;;;;8.43;5.47;;;;;;;19.29;62.73;100356.50;4934699;28;20054;-89
2023/09/06 06:40:23;;;;;;;8.45;5.30;;;;;;;19.29;62.91;100359.22;4907781;29;20046;-90
2023/09/06 06:42:50;;;;;;;5.50;4.80;;;;;;;19.30;62.52;100354.66;4938096;28;20047;-90
2023/09/06 06:45:16;;;;;;;7.22;4.97;;;;;;;19.36;62.69;100351.25;4924494;28;20138;-89
2023/09/06 06:47:44;;;;;;;8.10;5.88;;;;;;;19.41;62.66;100359.63;4933201;28;20851;-90
2023/09/06 06:50:11;;;;;;;7.40;4.93;;;;;;;19.41;62.66;100361.47;4915287;28;20138;-90
2023/09/06 06:52:43;;;;;;;12.88;5.82;;;;;;;19.44;62.74;100359.28;4936142;28;20075;-89
2023/09/06 06:55:11;;;;;;;8.30;5.05;;;;;;;19.46;62.60;100365.31;4931983;28;20135;-89
2023/09/06 06:57:38;;;;;;;6.63;4.63;;;;;;;19.53;62.18;100352.78;4932353;28;20707;-88
2023/09/06 07:00:05;;;;;;;6.05;4.68;;;;;;;19.57;62.14;100361.34;4917356;28;20126;-90
2023/09/06 07:02:34;;;;;;;8.98;5.00;;;;;;;19.61;61.98;100359.13;4948522;28;20043;-89
2023/09/06 07:05:01;;;;;;;6.97;4.50;;;;;;;19.65;62.08;100369.34;4923624;28;20062;-88
2023/09/06 07:07:28;;;;;;;10.20;5.20;;;;;;;19.68;62.49;100366.31;4908035;29;20126;-88
2023/09/06 07:09:55;;;;;;;7.45;4.55;;;;;;;19.70;62.15;100369.69;4917999;28;20047;-90
2023/09/06 07:12:22;;;;;;;8.00;4.72;;;;;;;19.66;62.06;100368.31;4923505;28;20498;-89
2023/09/06 07:14:50;;;;;;;7.80;4.80;;;;;;;19.75;62.02;100365.63;4935556;28;20039;-89
2023/09/06 07:17:17;;;;;;;9.68;5.10;;;;;;;19.76;62.22;100367.28;4902709;28;20047;-90
2023/09/06 07:19:44;;;;;;;6.53;4.75;;;;;;;19.82;62.06;100374.63;4926034;28;20048;-88
2023/09/06 07:22:11;;;;;;;6.05;5.03;;;;;;;19.83;62.37;100373.63;4917927;28;20408;-89
2023/09/06 07:24:38;;;;;;;7.97;4.68;;;;;;;19.85;62.40;100375.09;4905809;28;20563;-89
2023/09/06 07:27:05;;;;;;;6.25;4.93;;;;;;;19.87;62.69;100378.47;4927417;28;20829;-85
2023/09/06 07:29:31;;;;;;;8.55;5.13;;;;;;;19.92;62.06;100369.81;4939575;28;20047;-89
2023/09/06 07:31:59;;;;;;;8.10;4.63;;;;;;;19.98;61.91;100373.66;4931393;28;20058;-89
2023/09/06 07:34:25;;;;;;;6.05;4.88;;;;;;;20.00;62.41;100380.53;4923343;28;20511;-89
2023/09/06 07:36:52;;;;;;;11.13;5.00;;;;;;;20.03;61.60;100368.53;4927774;28;20039;-89
2023/09/06 07:39:21;;;;;;;6.65;4.68;;;;;;;20.07;61.85;100377.91;4920826;29;20044;-89
2023/09/06 07:41:50;;;;;;;5.60;4.60;;;;;;;20.10;61.81;100381.09;4929581;28;20067;-90
2023/09/06 07:44:18;;;;;;;6.85;4.50;;;;;;;20.14;61.67;100377.00;4928172;28;20054;-90
2023/09/06 07:46:48;;;;;;;6.80;4.88;;;;;;;20.16;61.83;100377.66;4922231;28;20491;-89
2023/09/06 07:49:16;;;;;;;6.85;4.60;;;;;;;20.21;61.73;100378.97;4907583;28;20055;-88
2023/09/06 07:51:43;;;;;;;5.35;4.65;;;;;;;20.23;61.47;100377.75;4900024;28;20050;-90
2023/09/06 07:54:10;;;;;;;7.15;4.60;;;;;;;20.28;61.23;100385.28;4935678;28;20039;-90
2023/09/06 07:56:39;;;;;;;8.27;4.90;;;;;;;20.31;61.22;100385.75;4910429;28;20043;-90
2023/09/06 07:59:09;;;;;;;6.63;4.68;;;;;;;20.34;60.97;100388.06;4911472;28;20595;-90
2023/09/06 08:01:35;;;;;;;5.50;4.63;;;;;;;20.37;61.26;100386.84;4927466;28;20047;-90
2023/09/06 08:04:02;;;;;;;6.55;4.78;;;;;;;20.41;61.69;100384.66;4927373;28;20562;-90
2023/09/06 08:06:29;;;;;;;8.57;5.20;;;;;;;20.41;61.49;100381.94;4931159;28;20147;-90
2023/09/06 08:08:58;;;;;;;6.75;5.00;;;;;;;20.46;61.29;100390.31;4907452;28;20074;-90
2023/09/06 08:11:25;;;;;;;5.72;4.63;;;;;;;20.47;61.44;100389.28;4903630;28;20118;-90
2023/09/06 08:13:51;;;;;;;9.43;4.85;;;;;;;20.51;60.93;100394.13;4910578;28;20402;-91
2023/09/06 08:16:19;;;;;;;6.25;4.07;;;;;;;20.53;60.96;100391.22;4936103;28;20126;-91
2023/09/06 08:18:46;;;;;;;5.60;4.60;;;;;;;20.57;60.91;100393.41;4925794;28;20051;-90
2023/09/06 08:21:15;;;;;;;4.40;4.00;;;;;;;20.59;61.13;100379.72;4910227;28;20083;-91
2023/09/06 08:23:43;;;;;;;6.00;3.90;;;;;;;20.64;61.05;100379.16;4894253;28;20052;-91
2023/09/06 08:26:11;;;;;;;6.07;4.43;;;;;;;20.66;60.65;100382.50;4929086;28;20672;-93
2023/09/06 08:28:38;;;;;;;5.20;4.03;;;;;;;20.71;59.89;100390.88;4921959;28;20051;-90
2023/09/06 08:31:05;;;;;;;6.05;4.57;;;;;;;20.71;60.38;100394.41;4910532;28;20086;-89
2023/09/06 08:33:32;;;;;;;7.90;4.32;;;;;;;20.74;60.12;100388.63;4932313;28;20047;-91
2023/09/06 08:35:59;;;;;;;5.15;4.25;;;;;;;20.78;60.14;100387.22;4940508;28;20047;-89
2023/09/06 08:38:26;;;;;;;6.15;4.15;;;;;;;20.79;59.97;100377.28;4916890;29;20047;-88
2023/09/06 08:40:53;;;;;;;5.35;4.85;;;;;;;20.85;59.74;100375.69;4926555;28;20074;-90
2023/09/06 08:43:19;;;;;;;5.75;3.92;;;;;;;20.86;59.81;100380.88;4936849;28;20135;-89
2023/09/06 08:45:48;;;;;;;5.38;3.97;;;;;;;20.90;59.96;100379.47;4908374;28;20063;-90
2023/09/06 08:48:15;;;;;;;4.55;3.83;;;;;;;20.94;59.72;100378.09;4952687;28;20146;-90
2023/09/06 08:50:44;;;;;;;6.00;3.85;;;;;;;20.98;59.54;100378.53;4926364;28;20098;-90
2023/09/06 08:53:11;;;;;;;5.03;3.92;;;;;;;21.01;59.83;100378.13;4908314;29;20111;-91
2023/09/06 08:55:38;;;;;;;5.07;3.47;;;;;;;21.05;59.88;100379.44;4924491;28;20055;-91
2023/09/06 08:58:05;;;;;;;5.28;4.20;;;;;;;21.07;60.10;100376.56;4919573;28;20047;-91
2023/09/06 09:00:33;;;;;;;5.72;4.22;;;;;;;21.10;59.77;100371.59;4933247;28;20135;-87
2023/09/06 09:03:01;;;;;;;6.35;4.07;;;;;;;21.11;59.81;100380.53;4911475;28;20415;-91
2023/09/06 09:05:28;;;;;;;4.53;3.95;;;;;;;21.13;59.51;100379.31;4911873;28;20042;-89
2023/09/06 09:07:58;;;;;;;5.85;4.40;;;;;;;21.17;59.37;100377.09;4906540;28;20074;-90
2023/09/06 09:10:28;;;;;;;4.60;4.20;;;;;;;21.19;59.63;100369.59;4921374;28;20466;-90
2023/09/06 09:12:56;;;;;;;4.70;4.00;;;;;;;21.21;59.70;100370.25;4907042;28;20071;-90
2023/09/06 09:15:27;;;;;;;5.30;4.13;;;;;;;21.25;59.97;100374.25;4908399;28;20448;-90
2023/09/06 09:17:54;;;;;;;5.40;4.13;;;;;;;21.25;59.75;100371.56;4907100;28;20044;-91
2023/09/06 09:20:25;;;;;;;5.60;4.18;;;;;;;21.28;59.55;100368.47;4910543;29;20511;-91
2023/09/06 09:22:52;;;;;;;4.25;3.55;;;;;;;21.31;59.68;100373.47;4906802;28;20048;-91
2023/09/06 09:25:23;;;;;;;5.55;4.13;;;;;;;21.34;59.71;100364.97;4943047;28;20063;-92
2023/09/06 09:27:55;;;;;;;4.78;4.07;;;;;;;21.37;59.78;100364.63;4912241;28;20392;-91
2023/09/06 09:30:23;;;;;;;6.63;4.68;;;;;;;21.38;59.63;100363.63;4910343;28;20413;-91
2023/09/06 09:33:02;;;;;;;5.00;4.07;;;;;;;21.37;59.16;100359.22;4920970;28;20040;-91
2023/09/06 09:35:31;;;;;;;5.05;4.13;;;;;;;21.45;59.63;100363.69;4927524;28;20703;-92
2023/09/06 09:38:01;;;;;;;6.57;4.10;;;;;;;21.49;59.52;100364.13;4936982;28;20135;-90
2023/09/06 09:40:34;;;;;;;4.97;3.80;;;;;;;21.50;59.25;100357.69;4921413;28;20063;-91
2023/09/06 09:43:04;;;;;;;6.28;4.25;;;;;;;21.52;59.87;100350.22;4924413;28;20046;-90
2023/09/06 09:45:43;;;;;;;4.65;4.20;;;;;;;21.49;59.75;100356.84;4896861;28;20071;-91
2023/09/06 09:48:11;;;;;;;5.45;4.05;;;;;;;21.57;59.60;100351.28;4915434;28;20108;-86
2023/09/06 09:50:41;;;;;;;4.72;3.55;;;;;;;21.60;59.13;100352.78;4923788;28;20523;-90
2023/09/06 09:53:09;;;;;;;6.72;4.15;;;;;;;21.62;59.10;100356.94;4924531;28;20039;-90
2023/09/06 09:55:47;;;;;;;4.65;4.18;;;;;;;21.63;59.20;100353.22;4911994;28;20043;-91
2023/09/06 09:58:15;;;;;;;4.93;3.83;;;;;;;21.67;59.41;100342.84;4911292;28;20044;-92
2023/09/06 10:00:42;;;;;;;6.85;3.47;;;;;;;21.68;59.38;100348.06;4907818;28;20624;-90
2023/09/06 10:03:09;;;;;;;4.88;3.47;;;;;;;21.70;59.46;100342.47;4923370;28;20122;-91
2023/09/06 10:05:51;;;;;;;4.68;3.63;;;;;;;21.73;59.49;100346.63;4913079;28;20047;-91
2023/09/06 10:08:18;;;;;;;5.90;3.88;;;;;;;21.75;59.26;100341.88;4922630;28;20048;-91
2023/09/06 10:10:45;;;;;;;6.03;3.40;;;;;;;21.78;59.22;100344.19;4897530;28;20099;-88
2023/09/06 10:13:14;;;;;;;4.38;3.70;;;;;;;21.78;59.45;100347.75;4891165;29;20408;-92
2023/09/06 10:15:43;;;;;;;5.60;3.42;;;;;;;21.82;59.08;100349.00;4905298;28;20059;-91
2023/09/06 10:18:10;;;;;;;4.68;4.20;;;;;;;21.83;59.32;100342.59;4905891;28;20138;-90
2023/09/06 10:20:37;;;;;;;5.55;4.45;;;;;;;21.89;58.96;100347.19;4915684;28;20522;-88
2023/09/06 10:23:05;;;;;;;4.75;4.00;;;;;;;21.91;58.49;100338.06;4893664;28;20063;-90
2023/09/06 10:25:40;;;;;;;4.55;4.00;;;;;;;21.89;58.79;100341.78;4905296;29;20047;-90
2023/09/06 10:28:07;;;;;;;4.88;4.25;;;;;;;21.97;58.55;100348.91;4918186;29;20538;-90
2023/09/06 10:30:51;;;;;;;5.45;4.07;;;;;;;22.00;58.18;100343.09;4923727;28;20088;-90
2023/09/06 10:33:31;;;;;;;;;;;;;;;21.89;58.30;100349.06;4913105;28;20046;-89
2023/09/06 10:36:02;;;;;;;5.93;3.95;;;;;;;22.09;58.27;100336.50;4934720;28;20421;-90
2023/09/06 10:38:30;;;;;;;4.13;3.72;;;;;;;22.10;58.82;100342.75;4939908;28;20090;-91
2023/09/06 10:40:57;;;;;;;7.78;4.00;;;;;;;22.14;58.25;100335.91;4924845;28;20131;-90
2023/09/06 10:43:28;;;;;;;7.20;3.95;;;;;;;22.21;57.92;100333.25;4932982;28;20040;-90
2023/09/06 10:46:07;;;;;;;5.13;3.72;;;;;;;22.21;57.77;100336.81;4938928;28;20056;-90
2023/09/06 10:48:34;;;;;;;5.07;3.95;;;;;;;22.28;56.99;100334.13;4932860;28;20099;-90
2023/09/06 10:51:09;;;;;;;4.90;3.78;;;;;;;22.31;56.92;100323.78;4908413;28;20071;-91
2023/09/06 10:53:36;;;;;;;4.68;4.00;;;;;;;22.33;58.19;100329.78;4906057;28;20051;-91
2023/09/06 10:56:05;;;;;;;4.20;3.65;;;;;;;22.37;57.81;100321.28;4921604;28;20135;-89
2023/09/06 10:58:36;;;;;;;4.93;3.95;;;;;;;22.36;58.25;100323.16;4906528;28;20050;-89
2023/09/06 11:01:17;;;;;;;5.43;3.80;;;;;;;22.36;57.59;100312.31;4892217;28;20694;-92
2023/09/06 11:03:50;;;;;;;4.20;3.80;;;;;;;22.39;57.56;100324.63;4920746;28;20067;-86
2023/09/06 11:06:18;;;;;;;7.05;4.00;;;;;;;22.47;55.80;100316.34;4932804;28;20039;-90
2023/09/06 11:08:47;;;;;;;6.03;4.13;;;;;;;22.50;56.21;100310.53;4908262;28;20075;-90
2023/09/06 11:11:14;;;;;;;4.72;3.47;;;;;;;22.55;56.29;100305.34;4898159;28;20571;-90
2023/09/06 11:13:44;;;;;;;6.30;3.58;;;;;;;22.57;56.15;100314.09;4919979;28;20054;-90
2023/09/06 11:16:13;;;;;;;10.18;3.72;;;;;;;22.59;56.13;100311.16;4922758;28;20353;-91
2023/09/06 11:18:47;;;;;;;5.50;3.40;;;;;;;22.66;54.54;100307.44;4921363;28;20058;-91
2023/09/06 11:21:18;;;;;;;4.72;3.50;;;;;;;22.73;55.07;100308.31;4937448;28;20823;-91
2023/09/06 11:23:47;;;;;;;10.32;4.15;;;;;;;22.78;54.97;100306.88;4939763;28;20521;-90
2023/09/06 11:26:13;;;;;;;3.80;3.40;;;;;;;22.80;55.06;100308.34;4936995;28;20134;-91
2023/09/06 11:28:42;;;;;;;4.13;3.65;;;;;;;22.81;55.47;100303.75;4937576;28;20388;-91
2023/09/06 11:31:24;;;;;;;4.57;3.50;;;;;;;22.80;55.15;100312.94;4927857;29;20055;-91
2023/09/06 11:33:55;;;;;;;4.90;3.47;;;;;;;22.91;54.75;100298.78;4929775;28;20067;-91